Time;durP1;ratioP1;P1;durP2;ratioP2;P2;SDS_P1;SDS_P2;PMS_P1;PMS_P2;Temp;Humidity;BMP_temperature;BMP_pressure;BME280_temperature;BME280_humidity;BME280_pressure;Samples;Min_cycle;Max_cycle;Signal;HPM_P1;HPM_P2
2022/04/10 00:00:19;;;;;;;8.27;1.85;;;;;;;;;;5072049;28;20383;-73
2022/04/10 00:02:45;;;;;;;23.85;2.53;;;;;;;;;;5072268;28;20048;-73
2022/04/10 00:05:11;;;;;;;12.30;2.42;;;;;;;;;;5071827;28;20036;-73
2022/04/10 00:07:37;;;;;;;10.80;2.70;;;;;;;;;;5071893;28;20048;-73
2022/04/10 00:10:04;;;;;;;10.43;2.83;;;;;;;;;;5072040;28;20040;-73
2022/04/10 00:12:33;;;;;;;7.70;2.42;;;;;;;;;;5071961;28;20464;-73
2022/04/10 00:14:59;;;;;;;13.18;2.55;;;;;;;;;;5053889;28;20112;-73
2022/04/10 00:17:25;;;;;;;15.80;4.95;;;;;;;;;;5071990;28;20112;-73
2022/04/10 00:19:51;;;;;;;13.85;2.53;;;;;;;;;;5071974;28;20790;-73
2022/04/10 00:22:17;;;;;;;7.20;2.60;;;;;;;;;;5071886;28;20024;-73
2022/04/10 00:24:43;;;;;;;14.35;2.50;;;;;;;;;;5072311;28;20407;-73
2022/04/10 00:27:13;;;;;;;9.18;2.67;;;;;;;;;;5071722;28;20044;-73
2022/04/10 00:29:39;;;;;;;11.82;3.75;;;;;;;;;;5071807;28;20024;-73
2022/04/10 00:32:06;;;;;;;10.60;2.70;;;;;;;;;;5071893;28;20032;-73
2022/04/10 00:34:31;;;;;;;10.07;3.38;;;;;;;;;;5071450;28;20063;-73
2022/04/10 00:36:58;;;;;;;9.38;2.63;;;;;;;;;;5053741;28;20056;-73
2022/04/10 00:39:24;;;;;;;12.00;2.47;;;;;;;;;;5071756;28;20043;-73
2022/04/10 00:41:51;;;;;;;11.13;2.70;;;;;;;;;;5071590;28;20016;-73
2022/04/10 00:44:17;;;;;;;10.25;3.00;;;;;;;;;;5071683;28;20033;-73
2022/04/10 00:46:43;;;;;;;13.30;2.97;;;;;;;;;;5071572;28;20032;-73
2022/04/10 00:49:09;;;;;;;11.52;3.10;;;;;;;;;;5071432;28;20025;-73
2022/04/10 00:51:41;;;;;;;9.00;2.50;;;;;;;;;;5071770;28;20100;-73
2022/04/10 00:54:36;;;;;;;9.75;3.30;;;;;;;;;;5071680;28;20024;-73
2022/04/10 00:57:02;;;;;;;9.40;2.67;;;;;;;;;;4970447;28;20113;-73
2022/04/10 00:59:29;;;;;;;9.38;2.88;;;;;;;;;;4970749;28;20031;-73
2022/04/10 01:01:55;;;;;;;12.40;3.15;;;;;;;;;;4970613;28;20057;-73
2022/04/10 01:04:21;;;;;;;11.63;3.28;;;;;;;;;;4970641;28;20046;-73
2022/04/10 01:06:48;;;;;;;12.65;3.92;;;;;;;;;;4970320;28;20066;-73
2022/04/10 01:09:14;;;;;;;13.05;3.13;;;;;;;;;;4970599;28;20084;-73
2022/04/10 01:11:40;;;;;;;9.32;2.72;;;;;;;;;;4970356;28;20060;-73
2022/04/10 01:14:07;;;;;;;10.63;2.88;;;;;;;;;;4970299;28;20046;-73
2022/04/10 01:16:34;;;;;;;7.07;2.45;;;;;;;;;;4970522;28;20030;-73
2022/04/10 01:19:04;;;;;;;11.07;3.40;;;;;;;;;;4970488;28;20049;-73
2022/04/10 01:21:32;;;;;;;9.75;2.72;;;;;;;;;;4970475;28;20053;-73
2022/04/10 01:23:58;;;;;;;9.52;2.97;;;;;;;;;;4970398;28;20035;-73
2022/04/10 01:26:25;;;;;;;11.93;3.53;;;;;;;;;;4970251;28;20051;-73
2022/04/10 01:29:00;;;;;;;10.75;2.90;;;;;;;;;;4970598;28;20037;-73
2022/04/10 01:31:27;;;;;;;8.38;3.00;;;;;;;;;;4970290;28;20022;-73
2022/04/10 01:33:54;;;;;;;9.48;3.70;;;;;;;;;;5040771;28;20633;-73
2022/04/10 01:36:21;;;;;;;13.07;3.55;;;;;;;;;;5071316;28;20020;-73
2022/04/10 01:38:47;;;;;;;12.10;3.10;;;;;;;;;;5071208;28;20032;-73
2022/04/10 01:41:13;;;;;;;12.68;3.35;;;;;;;;;;5070945;28;20074;-73
2022/04/10 01:43:46;;;;;;;9.88;2.67;;;;;;;;;;5071276;28;20047;-73
2022/04/10 01:46:15;;;;;;;13.10;2.85;;;;;;;;;;5071073;28;20359;-73
2022/04/10 01:48:41;;;;;;;9.20;3.00;;;;;;;;;;5074382;28;20033;-73
2022/04/10 01:51:08;;;;;;;12.40;2.85;;;;;;;;;;5074634;28;20451;-73
2022/04/10 01:53:35;;;;;;;15.30;3.95;;;;;;;;;;5074908;28;20393;-73
2022/04/10 01:56:01;;;;;;;9.63;3.00;;;;;;;;;;5074528;28;20024;-73
2022/04/10 01:58:27;;;;;;;8.27;3.53;;;;;;;;;;5074599;28;20439;-73
2022/04/10 02:00:53;;;;;;;13.20;2.92;;;;;;;;;;5074493;28;20033;-73
2022/04/10 02:03:19;;;;;;;9.57;3.05;;;;;;;;;;5074631;28;20031;-73
2022/04/10 02:05:45;;;;;;;9.43;2.47;;;;;;;;;;5074226;28;20028;-73
2022/04/10 02:08:13;;;;;;;9.95;3.20;;;;;;;;;;5074370;28;20037;-73
2022/04/10 02:10:39;;;;;;;9.32;2.97;;;;;;;;;;5074435;28;20021;-72
2022/04/10 02:13:06;;;;;;;11.40;3.40;;;;;;;;;;5074295;28;20040;-73
2022/04/10 02:15:32;;;;;;;14.02;3.17;;;;;;;;;;5074425;28;20036;-73
2022/04/10 02:17:58;;;;;;;12.93;3.55;;;;;;;;;;5074316;28;20074;-73
2022/04/10 02:20:24;;;;;;;11.85;3.47;;;;;;;;;;5074142;28;20029;-73
2022/04/10 02:22:53;;;;;;;15.82;3.75;;;;;;;;;;5074361;28;20028;-73
2022/04/10 02:25:19;;;;;;;13.13;3.55;;;;;;;;;;5074067;28;20478;-73
2022/04/10 02:27:45;;;;;;;9.70;3.72;;;;;;;;;;5074139;28;20032;-73
2022/04/10 02:30:12;;;;;;;13.10;3.95;;;;;;;;;;5073915;28;20096;-73
2022/04/10 02:32:39;;;;;;;13.57;3.65;;;;;;;;;;5074104;28;20510;-73
2022/04/10 02:35:05;;;;;;;12.05;3.72;;;;;;;;;;5074109;28;20039;-73
2022/04/10 02:37:31;;;;;;;11.95;3.60;;;;;;;;;;5073869;28;20017;-73
2022/04/10 02:39:57;;;;;;;13.15;4.03;;;;;;;;;;5073922;28;20073;-73
2022/04/10 02:42:23;;;;;;;15.13;3.88;;;;;;;;;;5059441;28;20044;-73
2022/04/10 02:44:49;;;;;;;13.38;4.15;;;;;;;;;;5053807;28;20106;-73
2022/04/10 02:47:15;;;;;;;12.63;3.42;;;;;;;;;;5053817;28;20036;-73
2022/04/10 02:49:42;;;;;;;14.98;4.28;;;;;;;;;;5053631;28;20029;-73
2022/04/10 02:52:08;;;;;;;11.85;3.65;;;;;;;;;;5053671;28;20024;-73
2022/04/10 02:54:34;;;;;;;15.45;4.00;;;;;;;;;;5053807;28;20156;-73
2022/04/10 02:57:00;;;;;;;17.10;3.70;;;;;;;;;;5053518;28;20104;-73
2022/04/10 02:59:26;;;;;;;18.05;4.00;;;;;;;;;;5053577;28;20380;-73
2022/04/10 03:01:52;;;;;;;16.83;3.50;;;;;;;;;;5053756;28;20560;-73
2022/04/10 03:04:18;;;;;;;26.48;4.70;;;;;;;;;;5053549;28;20479;-73
2022/04/10 03:06:45;;;;;;;22.05;3.90;;;;;;;;;;5053282;28;20059;-73
2022/04/10 03:09:11;;;;;;;13.18;3.70;;;;;;;;;;5053294;28;20029;-73
2022/04/10 03:11:37;;;;;;;15.40;4.07;;;;;;;;;;5053484;28;20135;-73
2022/04/10 03:14:03;;;;;;;15.90;4.53;;;;;;;;;;5062347;28;20462;-73
2022/04/10 03:16:29;;;;;;;15.23;3.40;;;;;;;;;;5073431;28;20104;-73
2022/04/10 03:18:55;;;;;;;17.50;3.70;;;;;;;;;;5073232;28;20040;-73
2022/04/10 03:21:21;;;;;;;14.07;3.45;;;;;;;;;;5072943;28;20025;-73
2022/04/10 03:23:47;;;;;;;8.82;3.10;;;;;;;;;;5055233;28;20033;-73
2022/04/10 03:26:13;;;;;;;16.35;3.83;;;;;;;;;;5073000;28;20497;-73
2022/04/10 03:28:39;;;;;;;16.30;3.67;;;;;;;;;;5073140;28;20039;-73
2022/04/10 03:31:05;;;;;;;13.27;3.08;;;;;;;;;;5073055;28;20036;-73
2022/04/10 03:33:31;;;;;;;11.60;3.10;;;;;;;;;;5054977;28;20077;-73
2022/04/10 03:35:58;;;;;;;13.63;3.38;;;;;;;;;;5072919;28;20161;-73
2022/04/10 03:38:24;;;;;;;9.70;3.72;;;;;;;;;;5055053;28;20503;-73
2022/04/10 03:40:50;;;;;;;13.57;3.95;;;;;;;;;;5072740;28;20169;-73
2022/04/10 03:43:16;;;;;;;9.43;3.70;;;;;;;;;;5072878;28;20036;-73
2022/04/10 03:45:42;;;;;;;11.27;3.20;;;;;;;;;;5072763;28;20032;-73
2022/04/10 03:48:09;;;;;;;17.15;4.10;;;;;;;;;;5072651;28;20100;-73
2022/04/10 03:50:35;;;;;;;14.10;3.25;;;;;;;;;;5072668;28;20032;-73
2022/04/10 03:53:02;;;;;;;13.93;4.15;;;;;;;;;;5072596;28;20012;-73
2022/04/10 03:55:28;;;;;;;14.93;4.10;;;;;;;;;;5072564;28;20028;-73
2022/04/10 03:57:55;;;;;;;15.20;4.78;;;;;;;;;;5072563;28;20581;-73
2022/04/10 04:00:21;;;;;;;25.63;4.60;;;;;;;;;;5072461;28;20032;-73
2022/04/10 04:02:47;;;;;;;13.10;4.05;;;;;;;;;;5072605;28;20029;-73
2022/04/10 04:05:13;;;;;;;17.08;4.05;;;;;;;;;;5072378;28;20032;-73
2022/04/10 04:07:40;;;;;;;13.98;3.35;;;;;;;;;;5072200;28;20048;-73
2022/04/10 04:10:07;;;;;;;15.88;4.20;;;;;;;;;;5071651;28;20024;-73
2022/04/10 04:12:34;;;;;;;19.83;4.85;;;;;;;;;;5072390;28;20017;-73
2022/04/10 04:15:00;;;;;;;12.90;3.65;;;;;;;;;;5071983;28;20024;-73
2022/04/10 04:17:26;;;;;;;17.50;4.05;;;;;;;;;;5072307;28;20351;-73
2022/04/10 04:19:53;;;;;;;15.68;5.32;;;;;;;;;;5072060;28;20494;-73
2022/04/10 04:22:20;;;;;;;15.43;4.35;;;;;;;;;;5072074;28;20025;-73
2022/04/10 04:24:46;;;;;;;12.90;3.97;;;;;;;;;;5072434;28;20036;-72
2022/04/10 04:27:12;;;;;;;9.68;3.65;;;;;;;;;;5071960;28;20032;-73
2022/04/10 04:29:38;;;;;;;9.68;3.42;;;;;;;;;;5071929;28;20025;-73
2022/04/10 04:32:05;;;;;;;13.98;3.92;;;;;;;;;;5072026;28;20051;-73
2022/04/10 04:34:31;;;;;;;12.80;3.83;;;;;;;;;;5072079;28;20043;-73
2022/04/10 04:36:57;;;;;;;10.43;3.70;;;;;;;;;;5071940;28;20463;-73
2022/04/10 04:39:23;;;;;;;14.18;3.42;;;;;;;;;;5071999;28;20070;-73
2022/04/10 04:41:49;;;;;;;10.18;3.33;;;;;;;;;;5062213;28;20147;-73
2022/04/10 04:44:15;;;;;;;13.27;3.60;;;;;;;;;;5051870;28;20033;-73
2022/04/10 04:46:42;;;;;;;11.75;4.03;;;;;;;;;;5051934;28;20024;-73
2022/04/10 04:49:08;;;;;;;11.75;3.63;;;;;;;;;;5051776;28;20059;-73
2022/04/10 04:51:36;;;;;;;12.15;3.28;;;;;;;;;;5051720;28;20020;-73
2022/04/10 04:54:02;;;;;;;12.45;3.60;;;;;;;;;;5051666;28;20056;-73
2022/04/10 04:56:28;;;;;;;11.15;3.58;;;;;;;;;;5051624;28;20033;-73
2022/04/10 04:58:54;;;;;;;15.82;3.58;;;;;;;;;;5051696;28;20087;-73
2022/04/10 05:01:20;;;;;;;10.00;3.70;;;;;;;;;;5051825;28;20025;-73
2022/04/10 05:03:46;;;;;;;15.48;3.72;;;;;;;;;;5051805;28;20374;-73
2022/04/10 05:06:12;;;;;;;20.70;5.47;;;;;;;;;;5051365;28;20059;-73
2022/04/10 05:08:39;;;;;;;13.88;3.85;;;;;;;;;;5051400;28;20041;-73
2022/04/10 05:11:08;;;;;;;10.02;3.42;;;;;;;;;;5051516;28;20379;-73
2022/04/10 05:13:35;;;;;;;12.43;3.50;;;;;;;;;;5038600;28;20548;-73
2022/04/10 05:16:01;;;;;;;18.85;3.95;;;;;;;;;;5071737;28;20043;-73
2022/04/10 05:18:27;;;;;;;19.80;4.05;;;;;;;;;;5071590;28;20032;-73
2022/04/10 05:20:53;;;;;;;14.10;3.55;;;;;;;;;;5071352;28;20043;-73
2022/04/10 05:23:20;;;;;;;11.32;3.60;;;;;;;;;;5074406;28;20052;-73
2022/04/10 05:25:46;;;;;;;15.20;4.43;;;;;;;;;;5075486;28;20025;-73
2022/04/10 05:28:14;;;;;;;13.98;3.92;;;;;;;;;;5075566;28;20082;-73
2022/04/10 05:30:41;;;;;;;12.52;3.92;;;;;;;;;;5075377;28;20024;-73
2022/04/10 05:33:07;;;;;;;14.73;3.67;;;;;;;;;;5075432;28;20024;-73
2022/04/10 05:35:33;;;;;;;13.63;4.35;;;;;;;;;;5075301;28;20332;-73
2022/04/10 05:37:59;;;;;;;18.23;6.03;;;;;;;;;;5075164;28;20027;-73
2022/04/10 05:40:25;;;;;;;14.68;6.28;;;;;;;;;;5075085;28;20127;-73
2022/04/10 05:42:51;;;;;;;19.08;6.63;;;;;;;;;;5056847;28;20028;-73
2022/04/10 05:45:18;;;;;;;21.10;6.07;;;;;;;;;;5055014;28;20442;-73
2022/04/10 05:47:44;;;;;;;22.20;6.50;;;;;;;;;;5054997;28;20383;-73
2022/04/10 05:50:10;;;;;;;17.80;5.97;;;;;;;;;;5055212;28;20044;-73
2022/04/10 05:52:38;;;;;;;11.95;5.82;;;;;;;;;;5055164;28;20025;-73
2022/04/10 05:55:04;;;;;;;19.70;6.53;;;;;;;;;;5055206;28;20017;-73
2022/04/10 05:57:30;;;;;;;18.88;5.45;;;;;;;;;;5055207;28;20027;-73
2022/04/10 05:59:56;;;;;;;14.02;5.20;;;;;;;;;;5054983;28;20386;-73
2022/04/10 06:02:22;;;;;;;12.57;5.25;;;;;;;;;;5054977;28;20067;-73
2022/04/10 06:04:48;;;;;;;15.82;5.53;;;;;;;;;;5054714;28;20056;-73
2022/04/10 06:07:14;;;;;;;18.10;5.43;;;;;;;;;;5054507;28;20116;-73
2022/04/10 06:09:40;;;;;;;18.70;5.20;;;;;;;;;;5054573;28;20094;-73
2022/04/10 06:12:07;;;;;;;15.15;4.18;;;;;;;;;;5054662;28;20033;-73
2022/04/10 06:14:33;;;;;;;17.98;4.82;;;;;;;;;;5067765;28;20021;-73
2022/04/10 06:16:59;;;;;;;14.32;4.30;;;;;;;;;;5074479;28;20132;-73
2022/04/10 06:19:26;;;;;;;17.23;3.80;;;;;;;;;;5074510;28;20032;-73
2022/04/10 06:21:52;;;;;;;15.60;4.13;;;;;;;;;;5074485;28;20097;-73
2022/04/10 06:24:20;;;;;;;9.48;3.08;;;;;;;;;;5074799;28;20041;-73
2022/04/10 06:26:48;;;;;;;9.02;2.75;;;;;;;;;;5074421;28;20420;-73
2022/04/10 06:29:15;;;;;;;14.32;2.88;;;;;;;;;;5074421;28;20024;-73
2022/04/10 06:31:41;;;;;;;10.38;2.50;;;;;;;;;;5074200;28;20020;-73
2022/04/10 06:34:07;;;;;;;11.00;2.28;;;;;;;;;;5073674;28;20520;-73
2022/04/10 06:36:33;;;;;;;13.90;2.70;;;;;;;;;;5074159;28;20378;-73
2022/04/10 06:38:59;;;;;;;7.18;1.90;;;;;;;;;;5074110;28;20023;-73
2022/04/10 06:41:25;;;;;;;7.95;1.85;;;;;;;;;;5073983;28;20340;-73
2022/04/10 06:43:52;;;;;;;11.40;4.03;;;;;;;;;;5074223;28;20107;-73
2022/04/10 06:46:18;;;;;;;9.48;1.50;;;;;;;;;;5074161;28;20039;-73
2022/04/10 06:48:44;;;;;;;8.07;1.60;;;;;;;;;;5073831;28;20033;-73
2022/04/10 06:51:10;;;;;;;6.68;1.55;;;;;;;;;;5073910;28;20104;-73
2022/04/10 06:53:36;;;;;;;9.48;1.77;;;;;;;;;;5073953;28;20028;-73
2022/04/10 06:56:02;;;;;;;7.28;2.17;;;;;;;;;;5073767;28;20020;-73
2022/04/10 06:58:28;;;;;;;5.78;1.80;;;;;;;;;;5073852;28;20400;-73
2022/04/10 07:00:54;;;;;;;8.80;2.33;;;;;;;;;;5073940;28;20095;-73
2022/04/10 07:03:20;;;;;;;7.57;1.95;;;;;;;;;;5073750;28;20039;-75
2022/04/10 07:05:48;;;;;;;8.25;2.25;;;;;;;;;;5073526;28;20427;-73
2022/04/10 07:08:15;;;;;;;10.13;2.50;;;;;;;;;;5073716;28;20161;-73
2022/04/10 07:10:41;;;;;;;6.88;2.20;;;;;;;;;;5073473;28;20024;-73
2022/04/10 07:13:08;;;;;;;7.18;1.77;;;;;;;;;;5073521;28;20082;-73
2022/04/10 07:15:34;;;;;;;4.55;1.60;;;;;;;;;;5073491;28;20070;-73
2022/04/10 07:18:00;;;;;;;8.75;2.20;;;;;;;;;;5073617;28;20024;-73
2022/04/10 07:20:27;;;;;;;5.63;1.67;;;;;;;;;;5073269;28;20047;-73
2022/04/10 07:25:37;;;;;;;4.70;1.25;;;;;;;;;;5073306;28;20102;-73
2022/04/10 07:28:04;;;;;;;5.70;1.40;;;;;;;;;;5073319;28;20028;-73
2022/04/10 07:30:30;;;;;;;4.10;1.15;;;;;;;;;;5073022;28;20077;-73
2022/04/10 07:32:57;;;;;;;5.82;1.20;;;;;;;;;;5073291;28;20377;-73
2022/04/10 07:35:24;;;;;;;2.40;0.90;;;;;;;;;;5073137;28;20058;-73
2022/04/10 07:37:50;;;;;;;5.32;2.15;;;;;;;;;;5072970;28;20564;-73
2022/04/10 07:40:16;;;;;;;9.18;1.20;;;;;;;;;;5073013;28;20051;-73
2022/04/10 07:42:46;;;;;;;4.30;0.95;;;;;;;;;;5056062;28;20028;-73
2022/04/10 07:47:58;;;;;;;5.38;1.33;;;;;;;;;;5053203;28;20402;-73
2022/04/10 07:50:24;;;;;;;5.18;1.00;;;;;;;;;;5052623;28;20451;-73
2022/04/10 07:52:50;;;;;;;3.03;1.10;;;;;;;;;;5052743;28;20023;-73
2022/04/10 07:55:16;;;;;;;2.78;1.15;;;;;;;;;;5052739;28;20021;-73
2022/04/10 07:57:42;;;;;;;7.93;1.40;;;;;;;;;;5052637;28;20013;-73
2022/04/10 08:00:09;;;;;;;5.25;1.30;;;;;;;;;;5052670;28;20395;-73
2022/04/10 08:02:35;;;;;;;6.30;1.50;;;;;;;;;;5052668;28;20033;-73
2022/04/10 08:05:01;;;;;;;4.50;1.02;;;;;;;;;;5052522;28;20476;-73
2022/04/10 08:07:27;;;;;;;7.07;1.30;;;;;;;;;;5052293;28;20063;-73
2022/04/10 08:09:54;;;;;;;7.38;1.23;;;;;;;;;;5052471;28;20459;-73
2022/04/10 08:12:20;;;;;;;3.85;1.30;;;;;;;;;;5052413;28;20052;-73
2022/04/10 08:14:48;;;;;;;5.75;1.65;;;;;;;;;;5067306;28;20020;-73
2022/04/10 08:17:14;;;;;;;6.97;1.40;;;;;;;;;;5072663;28;20059;-73
2022/04/10 08:19:40;;;;;;;6.82;1.30;;;;;;;;;;5072400;28;20025;-73
2022/04/10 08:22:06;;;;;;;5.60;1.20;;;;;;;;;;5072236;28;20024;-73
2022/04/10 08:24:32;;;;;;;5.78;1.40;;;;;;;;;;5072540;28;20508;-73
2022/04/10 08:26:59;;;;;;;5.25;1.33;;;;;;;;;;5072026;28;20024;-73
2022/04/10 08:29:25;;;;;;;4.13;1.23;;;;;;;;;;5072028;28;20039;-73
2022/04/10 08:31:51;;;;;;;4.57;1.42;;;;;;;;;;5072116;28;20030;-73
2022/04/10 08:34:18;;;;;;;3.17;1.20;;;;;;;;;;5072179;28;20074;-73
2022/04/10 08:36:44;;;;;;;7.32;1.38;;;;;;;;;;5072003;28;20379;-73
2022/04/10 08:39:10;;;;;;;7.65;1.23;;;;;;;;;;5071928;28;20448;-73
2022/04/10 08:41:37;;;;;;;9.25;1.15;;;;;;;;;;5064222;28;20029;-73
2022/04/10 08:44:04;;;;;;;5.28;0.90;;;;;;;;;;5052017;28;20036;-73
2022/04/10 08:46:33;;;;;;;8.00;1.27;;;;;;;;;;5052069;28;20029;-73
2022/04/10 08:49:00;;;;;;;4.75;1.17;;;;;;;;;;5051709;28;20025;-73
2022/04/10 08:51:27;;;;;;;10.75;1.10;;;;;;;;;;5051851;28;20032;-73
2022/04/10 08:53:56;;;;;;;4.85;1.00;;;;;;;;;;5051844;28;20025;-73
2022/04/10 08:56:23;;;;;;;7.68;1.30;;;;;;;;;;5050076;28;20021;-73
2022/04/10 08:58:52;;;;;;;3.88;1.33;;;;;;;;;;5051764;28;20351;-73
2022/04/10 09:01:19;;;;;;;5.78;1.40;;;;;;;;;;5051794;28;20025;-73
2022/04/10 09:03:46;;;;;;;5.38;1.48;;;;;;;;;;5051793;28;20135;-73
2022/04/10 09:06:12;;;;;;;6.63;1.20;;;;;;;;;;5051397;28;20067;-73
2022/04/10 09:08:38;;;;;;;9.45;1.60;;;;;;;;;;5051479;28;20031;-73
2022/04/10 09:11:08;;;;;;;6.25;1.38;;;;;;;;;;5051539;28;20028;-73
2022/04/10 09:13:34;;;;;;;7.60;1.05;;;;;;;;;;5056731;28;20485;-73
2022/04/10 09:16:02;;;;;;;7.60;1.13;;;;;;;;;;5071566;28;20044;-73
2022/04/10 09:18:28;;;;;;;4.90;0.93;;;;;;;;;;5071788;28;20451;-73
2022/04/10 09:21:07;;;;;;;7.18;1.00;;;;;;;;;;5071578;28;20109;-73
2022/04/10 09:23:34;;;;;;;8.68;1.42;;;;;;;;;;5053472;28;20075;-73
2022/04/10 09:26:00;;;;;;;6.85;1.80;;;;;;;;;;5071595;28;20021;-73
2022/04/10 09:28:40;;;;;;;5.18;1.10;;;;;;;;;;5071627;28;20024;-73
2022/04/10 09:31:24;;;;;;;3.72;1.20;;;;;;;;;;5071395;28;20040;-73
2022/04/10 09:33:50;;;;;;;8.63;0.90;;;;;;;;;;5071594;28;20017;-73
2022/04/10 09:36:27;;;;;;;4.97;1.00;;;;;;;;;;5052664;28;20375;-73
2022/04/10 09:38:53;;;;;;;9.05;1.20;;;;;;;;;;5071469;28;20028;-73
2022/04/10 09:41:20;;;;;;;5.43;1.40;;;;;;;;;;5065989;28;20029;-73
2022/04/10 09:43:46;;;;;;;6.50;1.05;;;;;;;;;;5051497;28;20151;-73
2022/04/10 09:46:15;;;;;;;6.95;1.20;;;;;;;;;;5051372;28;20029;-73
2022/04/10 09:48:41;;;;;;;5.93;1.13;;;;;;;;;;5051335;28;20387;-73
2022/04/10 09:51:10;;;;;;;6.05;1.10;;;;;;;;;;5051282;28;20456;-73
2022/04/10 09:53:36;;;;;;;3.47;0.80;;;;;;;;;;5051416;28;20370;-73
2022/04/10 09:56:11;;;;;;;11.00;1.10;;;;;;;;;;5051088;28;20439;-73
2022/04/10 09:58:38;;;;;;;4.85;1.20;;;;;;;;;;5051364;28;20036;-73
2022/04/10 10:01:06;;;;;;;10.02;1.08;;;;;;;;;;5033267;28;20661;-73
2022/04/10 10:03:36;;;;;;;3.92;1.00;;;;;;;;;;5051183;28;20044;-73
2022/04/10 10:06:04;;;;;;;3.95;0.80;;;;;;;;;;5051323;28;20028;-72
2022/04/10 10:08:30;;;;;;;7.05;0.95;;;;;;;;;;5052512;28;20021;-73
2022/04/10 10:10:56;;;;;;;5.85;0.85;;;;;;;;;;5054693;28;20075;-73
2022/04/10 10:13:26;;;;;;;5.80;1.40;;;;;;;;;;5058153;28;20504;-73
2022/04/10 10:15:53;;;;;;;7.13;1.30;;;;;;;;;;5074650;28;20431;-73
2022/04/10 10:18:21;;;;;;;6.85;1.52;;;;;;;;;;5074683;28;20013;-73
2022/04/10 10:20:48;;;;;;;6.82;0.93;;;;;;;;;;5074334;28;20021;-73
2022/04/10 10:23:14;;;;;;;11.65;1.00;;;;;;;;;;5074617;28;20455;-73
2022/04/10 10:25:48;;;;;;;2.72;1.05;;;;;;;;;;5074270;28;20025;-73
2022/04/10 10:28:33;;;;;;;4.85;0.88;;;;;;;;;;5074566;28;20029;-73
2022/04/10 10:31:04;;;;;;;4.97;0.80;;;;;;;;;;5074408;28;20367;-73
2022/04/10 10:33:31;;;;;;;5.80;0.90;;;;;;;;;;5074319;28;20375;-73
2022/04/10 10:35:59;;;;;;;10.18;1.38;;;;;;;;;;5074210;28;20568;-73
2022/04/10 10:38:31;;;;;;;5.63;1.00;;;;;;;;;;5074205;28;20024;-73
2022/04/10 10:41:30;;;;;;;6.35;0.88;;;;;;;;;;5073933;28;20045;-73
2022/04/10 10:43:56;;;;;;;6.63;1.05;;;;;;;;;;5074278;28;20524;-73
2022/04/10 10:46:23;;;;;;;6.88;1.00;;;;;;;;;;5074289;28;20025;-73
2022/04/10 10:48:53;;;;;;;8.45;0.90;;;;;;;;;;5074031;28;20150;-73
2022/04/10 10:51:19;;;;;;;1.98;0.47;;;;;;;;;;5073915;28;20104;-73
2022/04/10 10:53:45;;;;;;;2.58;0.60;;;;;;;;;;5074045;28;20195;-73
2022/04/10 10:56:21;;;;;;;2.15;0.50;;;;;;;;;;5073749;28;20463;-73
2022/04/10 10:58:48;;;;;;;4.30;0.70;;;;;;;;;;5073913;28;20063;-73
2022/04/10 11:01:18;;;;;;;2.92;0.68;;;;;;;;;;5073695;28;20024;-73
2022/04/10 11:04:03;;;;;;;7.65;1.02;;;;;;;;;;5073669;28;20487;-73
2022/04/10 11:06:30;;;;;;;3.90;0.80;;;;;;;;;;5052126;28;20345;-73
2022/04/10 11:09:16;;;;;;;3.63;0.85;;;;;;;;;;5053488;28;20033;-73
2022/04/10 11:11:42;;;;;;;3.03;0.73;;;;;;;;;;5053524;28;20017;-73
2022/04/10 11:14:28;;;;;;;6.78;1.00;;;;;;;;;;5053347;28;20511;-73
2022/04/10 11:16:54;;;;;;;4.68;0.90;;;;;;;;;;5053345;28;20036;-73
2022/04/10 11:19:23;;;;;;;6.45;1.00;;;;;;;;;;5053082;28;20025;-73
2022/04/10 11:21:49;;;;;;;5.53;0.65;;;;;;;;;;5053265;28;20032;-73
2022/04/10 11:24:22;;;;;;;5.90;0.70;;;;;;;;;;5053538;28;20503;-73
2022/04/10 11:26:49;;;;;;;3.83;0.80;;;;;;;;;;5053253;28;20025;-73
2022/04/10 11:29:15;;;;;;;2.38;0.73;;;;;;;;;;5053326;28;20025;-73
2022/04/10 11:31:47;;;;;;;4.15;0.95;;;;;;;;;;5053351;28;20017;-73
2022/04/10 11:34:14;;;;;;;5.30;0.90;;;;;;;;;;5053366;28;20218;-73
2022/04/10 11:36:52;;;;;;;4.60;1.08;;;;;;;;;;5053093;28;20021;-73
2022/04/10 11:39:34;;;;;;;3.53;1.08;;;;;;;;;;5052980;28;20367;-73
2022/04/10 11:42:01;;;;;;;3.25;0.80;;;;;;;;;;5041889;28;20061;-74
2022/04/10 11:44:28;;;;;;;6.93;1.15;;;;;;;;;;5033108;28;20026;-73
2022/04/10 11:46:54;;;;;;;5.57;1.58;;;;;;;;;;5033169;28;20049;-73
2022/04/10 11:49:20;;;;;;;5.65;1.40;;;;;;;;;;5032822;28;20038;-73
2022/04/10 11:51:50;;;;;;;4.88;1.30;;;;;;;;;;5032947;28;20072;-73
2022/04/10 11:54:25;;;;;;;5.93;0.95;;;;;;;;;;5032877;28;20025;-73
2022/04/10 11:56:52;;;;;;;6.03;1.08;;;;;;;;;;5032681;28;20547;-73
2022/04/10 11:59:18;;;;;;;5.53;1.10;;;;;;;;;;5032783;28;20061;-74
2022/04/10 12:01:44;;;;;;;7.38;1.05;;;;;;;;;;5032986;28;20056;-73
2022/04/10 12:04:10;;;;;;;6.93;1.30;;;;;;;;;;5032898;28;20029;-73
2022/04/10 12:06:36;;;;;;;5.30;0.90;;;;;;;;;;5037954;28;20041;-73
2022/04/10 12:09:02;;;;;;;5.10;1.13;;;;;;;;;;5052463;28;20039;-73
2022/04/10 12:11:37;;;;;;;3.55;0.85;;;;;;;;;;5052599;28;20150;-73
2022/04/10 12:14:14;;;;;;;6.53;1.33;;;;;;;;;;5052476;28;20166;-73
2022/04/10 12:16:43;;;;;;;3.83;0.80;;;;;;;;;;5052542;28;20029;-73
2022/04/10 12:19:09;;;;;;;3.97;0.85;;;;;;;;;;5053641;28;20028;-75
2022/04/10 12:21:36;;;;;;;6.35;0.88;;;;;;;;;;5072274;28;20120;-74
2022/04/10 12:24:03;;;;;;;4.40;1.10;;;;;;;;;;5072683;28;20072;-74
2022/04/10 12:26:30;;;;;;;5.13;1.20;;;;;;;;;;5072197;28;20108;-75
2022/04/10 12:28:56;;;;;;;5.40;0.90;;;;;;;;;;5072372;28;20041;-74
2022/04/10 12:31:23;;;;;;;3.33;0.85;;;;;;;;;;5071689;28;20024;-77
2022/04/10 12:33:49;;;;;;;3.65;1.02;;;;;;;;;;5072470;28;20028;-74
2022/04/10 12:36:19;;;;;;;17.08;2.10;;;;;;;;;;5072249;28;20086;-75
2022/04/10 12:38:45;;;;;;;4.80;1.15;;;;;;;;;;5072545;28;20028;-75
2022/04/10 12:41:11;;;;;;;6.00;0.90;;;;;;;;;;5067998;28;20143;-75
2022/04/10 12:43:37;;;;;;;4.60;0.90;;;;;;;;;;5052154;28;20040;-73
2022/04/10 12:46:10;;;;;;;3.63;1.00;;;;;;;;;;5052021;28;20052;-75
2022/04/10 12:48:37;;;;;;;4.68;0.90;;;;;;;;;;5052670;28;20056;-74
2022/04/10 12:51:14;;;;;;;5.25;0.90;;;;;;;;;;5052366;28;20490;-74
2022/04/10 12:53:46;;;;;;;6.80;1.25;;;;;;;;;;5052669;28;20048;-74
2022/04/10 12:56:20;;;;;;;12.93;1.48;;;;;;;;;;5052274;28;20544;-74
2022/04/10 12:58:47;;;;;;;4.38;0.90;;;;;;;;;;5051843;28;20052;-74
2022/04/10 13:01:30;;;;;;;6.38;1.00;;;;;;;;;;5051996;28;20025;-74
2022/04/10 13:03:56;;;;;;;5.40;0.88;;;;;;;;;;5051990;28;20029;-75
2022/04/10 13:06:27;;;;;;;3.97;0.90;;;;;;;;;;5051747;28;20038;-74
2022/04/10 13:08:53;;;;;;;4.07;0.75;;;;;;;;;;5051894;28;20063;-74
2022/04/10 13:11:19;;;;;;;5.60;1.30;;;;;;;;;;5050377;28;20021;-74
2022/04/10 13:13:55;;;;;;;5.72;0.75;;;;;;;;;;5058392;28;20532;-74
2022/04/10 13:16:31;;;;;;;3.95;0.98;;;;;;;;;;5071816;28;20021;-74
2022/04/10 13:19:03;;;;;;;3.97;1.02;;;;;;;;;;5071689;28;20060;-74
2022/04/10 13:21:29;;;;;;;3.60;0.95;;;;;;;;;;5051554;28;20170;-74
2022/04/10 13:23:55;;;;;;;5.63;0.95;;;;;;;;;;5051819;28;20037;-74
2022/04/10 13:26:25;;;;;;;3.85;0.75;;;;;;;;;;5051544;28;20017;-74
2022/04/10 13:28:51;;;;;;;4.32;1.05;;;;;;;;;;5051617;28;20025;-74
2022/04/10 13:31:18;;;;;;;3.88;0.90;;;;;;;;;;5051518;28;20023;-74
2022/04/10 13:33:45;;;;;;;5.78;1.48;;;;;;;;;;5051654;28;20039;-74
2022/04/10 13:36:11;;;;;;;4.65;0.90;;;;;;;;;;5051425;28;20024;-74
2022/04/10 13:38:37;;;;;;;3.00;0.77;;;;;;;;;;5051428;28;20021;-74
2022/04/10 13:41:03;;;;;;;4.63;1.15;;;;;;;;;;5051366;28;20045;-74
2022/04/10 13:43:29;;;;;;;9.00;2.58;;;;;;;;;;5052897;28;20017;-74
2022/04/10 13:45:55;;;;;;;3.28;0.80;;;;;;;;;;5055265;28;20029;-74
2022/04/10 13:48:21;;;;;;;3.90;0.90;;;;;;;;;;5055370;28;20021;-74
2022/04/10 13:50:47;;;;;;;4.10;0.80;;;;;;;;;;5055074;28;20029;-74
2022/04/10 13:53:13;;;;;;;4.25;1.30;;;;;;;;;;5055056;28;20021;-74
2022/04/10 13:55:39;;;;;;;4.45;1.00;;;;;;;;;;5055009;28;20032;-74
2022/04/10 13:58:06;;;;;;;3.22;0.60;;;;;;;;;;5055101;28;20025;-74
2022/04/10 14:00:32;;;;;;;4.65;1.00;;;;;;;;;;5055030;28;20040;-74
2022/04/10 14:02:59;;;;;;;4.55;0.68;;;;;;;;;;5055330;28;20371;-74
2022/04/10 14:05:25;;;;;;;3.67;0.80;;;;;;;;;;5054848;28;20048;-74
2022/04/10 14:07:51;;;;;;;4.47;1.35;;;;;;;;;;5054678;28;20499;-74
2022/04/10 14:10:17;;;;;;;6.00;1.30;;;;;;;;;;5054544;28;20036;-74
2022/04/10 14:12:43;;;;;;;7.30;0.80;;;;;;;;;;5054757;28;20028;-74
2022/04/10 14:15:09;;;;;;;2.70;0.70;;;;;;;;;;5056700;28;20047;-74
2022/04/10 14:17:35;;;;;;;2.42;0.73;;;;;;;;;;5074599;28;20090;-74
2022/04/10 14:20:02;;;;;;;3.63;0.98;;;;;;;;;;5074893;28;20021;-74
2022/04/10 14:22:28;;;;;;;4.30;1.35;;;;;;;;;;5074847;28;20029;-74
2022/04/10 14:24:54;;;;;;;2.65;0.70;;;;;;;;;;5075034;28;20119;-74
2022/04/10 14:27:20;;;;;;;4.80;1.00;;;;;;;;;;5074629;28;20111;-74
2022/04/10 14:29:46;;;;;;;3.28;0.75;;;;;;;;;;5074398;28;20036;-74
2022/04/10 14:32:12;;;;;;;4.47;2.10;;;;;;;;;;5074418;28;20074;-74
2022/04/10 14:34:39;;;;;;;4.20;1.65;;;;;;;;;;5074486;28;20035;-73
2022/04/10 14:37:05;;;;;;;5.35;0.90;;;;;;;;;;5074512;28;20082;-73
2022/04/10 14:39:31;;;;;;;2.92;0.52;;;;;;;;;;5074455;28;20024;-73
2022/04/10 14:41:58;;;;;;;1.58;0.50;;;;;;;;;;5074209;28;20120;-73
2022/04/10 14:44:25;;;;;;;3.17;0.60;;;;;;;;;;5074232;28;20021;-73